Monday, November 20, 2017, 4:18 AM GMT
Back to Local

CYHZ, Halifax International Airport

Location: , , Canada Lat: 44.883
Local Time: 4:18 AM GMT ( 4:18 GMT) Lon: -63.5
Time Zone: GMT Elev: 475 ft

Show me the last for .
Show Decoded

2017-11-20 04:00 METAR CYHZ 200400Z 23017G23KT 15SM FEW015 BKN040 09/07 A2924 RMK CF1SC5 SLP906
                 DENSITY ALT 700FT =
2017-11-20 03:00 METAR CYHZ 200300Z 22021G29KT 15SM FEW015 FEW030 11/08 A2921 RMK CU1SC1 SLP894
                 DENSITY ALT 900FT =
2017-11-20 02:00 METAR CYHZ 200200Z 21015G21KT 12SM SCT015 11/11 A2918 RMK SC4 SLP886 DENSITY ALT
                 1000FT =
2017-11-20 01:00 METAR CYHZ 200100Z 21019G27KT 10SM BKN011 13/12 A2918 RMK SC7 SLP886 DENSITY ALT
                 1200FT =
2017-11-20 00:00 METAR CYHZ 200000Z 20016G26KT 8SM OVC008 14/13 A2918 RMK ST8 CIG RAG SLP886
                 DENSITY ALT 1400FT =
2017-11-19 23:17 METAR CYHZ 192317Z 19015G27KT 8SM OVC010 15/14 A2920 RMK ST8 CIG RAG SLP891
                 DENSITY ALT 1400FT =
2017-11-19 23:00 METAR CYHZ 192300Z 20018G27KT 2 1/2SM -RA BR OVC007 15/15 A2921 RMK NS8 CIG RAG
                 SLP893 DENSITY ALT 1400FT =
2017-11-19 22:38 METAR CYHZ 192238Z 21016G29KT 2 1/2SM R14/4500VP6000FT/U -RA BR OVC005 15/15
                 A2921 RMK NS8 CIG RAG PRESRR SLP896 DENSITY ALT 1400FT =
2017-11-19 22:34 METAR CYHZ 192234Z 21016G29KT 2SM R14/4500VP6000FT/D RA BR OVC006 15/15 A2921
                 RMK NS8 CIG RAG SLP895 DENSITY ALT 1400FT =
2017-11-19 22:24 METAR CYHZ 192224Z 18017G31KT 2SM +RA BR OVC005 15/15 A2919 RMK NS8 CIG RAG
                 SLP890 DENSITY ALT 1400FT =
2017-11-19 22:21 METAR CYHZ 192221Z 18018G31KT 2 1/2SM RA BR OVC005 15/15 A2920 RMK NS8 CIG RAG
                 /R20/ SLP891 DENSITY ALT 1400FT =
2017-11-19 22:10 METAR CYHZ 192210Z 17021G29KT 1 1/2SM RA BR OVC005 15/15 A2920 RMK FG4NS4 SLP892
                 DENSITY ALT 1400FT =
2017-11-19 22:00 METAR CYHZ 192200Z 17020G27KT 2SM -RA BR OVC003 15/15 A2920 RMK NS8 CIG RAG
                 PRESFR SLP892 DENSITY ALT 1400FT =
2017-11-19 21:32 METAR CYHZ 192132Z 18020G32KT 3SM -RA BR OVC005 15/15 A2923 RMK NS8 CIG RAG
                 SLP902 DENSITY ALT 1500FT =
2017-11-19 21:00 METAR CYHZ 192100Z 18022G36KT 8SM -RA OVC007 15/15 A2925 RMK NS8 CIG RAG SLP910
                 DENSITY ALT 1400FT =
2017-11-19 20:46 METAR CYHZ 192046Z 17019G31KT 3SM -RA BR OVC005 15/15 A2926 RMK NS8 CIG RAG
                 SLP911 DENSITY ALT 1400FT =
2017-11-19 20:33 METAR CYHZ 192033Z 17022G28KT 2SM RA BR OVC005 15/15 A2926 RMK NS8 CIG RAG
                 PRESFR SLP912 DENSITY ALT 1400FT =
2017-11-19 20:28 METAR CYHZ 192028Z 18016G28KT 3SM -RA BR OVC005 15/15 A2926 RMK NS8 CIG RAG
                 SLP913 DENSITY ALT 1400FT =
2017-11-19 20:20 METAR CYHZ 192020Z 18017G31KT 5SM -RA BR OVC006 15/15 A2927 RMK NS8 CIG RAG
                 SLP916 DENSITY ALT 1400FT =
2017-11-19 20:08 METAR CYHZ 192008Z 18019G28KT 3SM -RA BR OVC005 15/15 A2928 RMK NS8 CIG RAG
                 SLP920 DENSITY ALT 1300FT =
2017-11-19 20:00 METAR CYHZ 192000Z 18019G32KT 2SM -RA BR OVC005 15/15 A2929 RMK NS8 CIG RAG
                 SLP922 DENSITY ALT 1300FT =
2017-11-19 19:49 METAR CYHZ 191949Z 17018G26KT 2SM -RA BR BKN005 15/14 A2929 RMK NS7 CIG RAG
                 SLP923 DENSITY ALT 1300FT =
2017-11-19 19:41 METAR CYHZ 191941Z 18016G28KT 3SM -RA BR OVC004 15/15 A2929 RMK NS8 CIG RAG
                 SLP924 DENSITY ALT 1300FT =
2017-11-19 19:00 METAR CYHZ 191900Z 17019G29KT 4SM BR OVC003 14/14 A2932 RMK ST8 SLP932 DENSITY
                 ALT 1300FT =
2017-11-19 18:20 METAR CYHZ 191820Z 18017G33KT 150V220 8SM BKN003 OVC010 14/14 A2934 RMK ST7NS1
                 PRESFR SLP939 DENSITY ALT 1200FT =
2017-11-19 18:00 METAR CYHZ 191800Z 18012G25KT 8SM SCT005 BKN011 OVC050 14/14 A2935 RMK ST3SC3SC2
                 BR PRESFR SLP945 DENSITY ALT 1200FT =
2017-11-19 17:52 METAR CYHZ 191752Z 17013G24KT 8SM FEW005 BKN010 OVC050 14/14 A2936 RMK SF1SC5SC2
                 BR PRESFR SLP948 DENSITY ALT 1200FT =
2017-11-19 17:06 METAR CYHZ 191706Z 17018G26KT 6SM -SHRA BR BKN004 OVC010 13/13 A2941 RMK SF7SC1
                 SLP963 DENSITY ALT 1000FT =
2017-11-19 17:00 METAR CYHZ 191700Z 17016G26KT 2SM -SHRA BR OVC003 13/13 A2941 RMK SF8 CIG RGD
                 SLP964 DENSITY ALT 1000FT =
2017-11-19 16:45 METAR CYHZ 191645Z 17018G30KT 10SM -SHRA SCT005 OVC011 13/13 A2941 RMK SF4SC4
                 CVCTV CLD EMBD SLP966 DENSITY ALT 1000FT =
2017-11-19 16:00 METAR CYHZ 191600Z 17013KT 3SM -SHRA BR OVC002 13/13 A2944 RMK ST8 SLP976
                 DENSITY ALT 900FT =
2017-11-19 15:11 METAR CYHZ 191511Z 15014G21KT 2SM -SHRA BR OVC002 11/11 A2949 RMK ST8 SLP991
                 DENSITY ALT 700FT =
2017-11-19 15:00 METAR CYHZ 191500Z 15012G19KT 1 1/2SM -RA BR OVC001 11/11 A2950 RMK ST8 SLP994
                 DENSITY ALT 600FT =
2017-11-19 14:49 METAR CYHZ 191449Z 14015G22KT 1 1/2SM -RA BR OVC001 10/10 A2950 RMK ST8 PRESFR
                 SLP996 DENSITY ALT 600FT =
2017-11-19 14:36 METAR CYHZ 191436Z 14013G21KT 3SM -RA BR OVC002 10/10 A2952 RMK ST8 SLP001
                 DENSITY ALT 500FT =
2017-11-19 14:24 METAR CYHZ 191424Z 14015G21KT 1 3/4SM -RA BR OVC003 10/10 A2953 RMK ST8 SLP005
                 DENSITY ALT 500FT =
2017-11-19 14:13 METAR CYHZ 191413Z 14013G18KT 6SM BR OVC002 10/10 A2953 RMK ST8 SLP007 =
2017-11-19 14:00 METAR CYHZ 191400Z 13016KT 5SM -RA BR OVC004 09/09 A2954 RMK ST8 SLP008 =
2017-11-19 13:17 METAR CYHZ 191317Z 13014KT 5SM -RA BR OVC003 08/08 A2957 RMK ST8 SLP018 =
2017-11-19 13:00 METAR CYHZ 191300Z 13016G21KT 12SM -DZ OVC004 08/08 A2958 RMK ST8 PRESFR SLP022
                 =
2017-11-19 12:47 METAR CYHZ 191247Z 14016KT 8SM -DZ BKN005 OVC011 08/08 A2959 RMK SF5SC3 SLP027 =
2017-11-19 12:11 METAR CYHZ 191211Z 13013G20KT 5SM -DZ BR OVC001 07/07 A2960 RMK ST8 SLP030 =
2017-11-19 12:00 METAR CYHZ 191200Z 14014KT 8SM -DZ BKN003 OVC027 06/06 A2961 RMK ST5SC3 SLP033 =
2017-11-19 11:46 METAR CYHZ 191146Z 14011G17KT 8SM -SHRA SCT006 BKN015 OVC055 06/06 A2961 RMK
                 ST4SC2SC2 SLP034 =
2017-11-19 11:35 METAR CYHZ 191135Z 14013KT 12SM -SHRA BKN013 BKN052 OVC100 05/05 A2961 RMK
                 SC5NS2AS1 SLP033 =
2017-11-19 11:00 METAR CYHZ 191100Z 13013KT 12SM -SHRA FEW028 SCT055 OVC100 05/05 A2962 RMK
                 SF2NS2AS4 SLP035 =
2017-11-19 10:29 METAR CYHZ 191029Z 13012KT 15SM -SHRA SCT029 OVC100 04/04 A2963 RMK SC3AC5
                 PRESFR SLP039 =
2017-11-19 10:00 METAR CYHZ 191000Z 12013KT 15SM BKN045 OVC095 03/03 A2964 RMK SC7AC1 PRESFR
                 SLP045 =
2017-11-19 09:46 METAR CYHZ 190946Z 13010KT 15SM OVC048 02/02 A2966 RMK SC8 SLP050 =
2017-11-19 09:00 METAR CYHZ 190900Z 14009KT 15SM -RA OVC065 02/01 A2968 RMK SC8 SLP059 =
2017-11-19 08:51 METAR CYHZ 190851Z 14010KT 15SM -RA OVC070 02/01 A2969 RMK AS8 SLP061 =
2017-11-19 08:00 METAR CYHZ 190800Z 14009KT 15SM OVC095 01/00 A2971 RMK AS8 SLP068 =
2017-11-19 07:00 METAR CYHZ 190700Z 12007KT 15SM OVC090 01/M00 A2975 RMK AS8 SLP081 =
2017-11-19 06:00 METAR CYHZ 190600Z 13005KT 15SM OVC110 00/M00 A2977 RMK AS8 SLP087 =
2017-11-19 05:00 METAR CYHZ 190500Z 17004KT 15SM OVC120 00/M01 A2977 RMK AS8 SLP089 =

Support USWX by starting your Amazon purchase here.